Latest Weather Observations for East Sale

IDV60801

Issued at 4:32 pm EDT Sunday 7 February 2016 (issued every 30 minutes, with the page automatically refreshed every 10 minutes)

About weather observations | Map of weather stations | Latest weather observations for VIC | Other Formats
Station Details ID: 085072 Name: EAST SALE AIRPORT Lat: -38.12 Lon: 147.13 Height: 4.6 m
Data from the previous 72 hours. | See also: Recent months at East Sale
Date/Time
EDT
Temp
°C
App
Temp
°C
Dew
Point
Rel
Hum
%
Delta-T
°C
Wind Press
QNH
hPa
Press
MSL
hPa
Rain
since 9 am
mm
Dir
 
Spd
km/h
Gust
km/h
Spd
kts
Gust
kts
07/04:30pm 29.0 26.6 14.4 41 8.8 E 20 24 11 13 1015.6 1015.6 0.0
07/04:00pm 28.2 26.6 16.5 49 7.3 E 20 26 11 14 1015.6 1015.6 0.0
07/03:30pm 28.3 26.2 16.2 47 7.5 E 22 30 12 16 1015.8 1015.8 0.0
07/03:00pm 27.9 27.2 17.4 52 6.6 E 17 26 9 14 1016.1 1016.1 0.0
07/02:30pm 27.7 26.8 16.9 51 6.7 E 17 24 9 13 1016.2 1016.2 0.0
07/02:00pm 28.2 27.8 18.0 54 6.5 E 17 24 9 13 1016.3 1016.3 0.0
07/01:30pm 28.0 29.0 18.7 57 6.0 E 11 20 6 11 1016.5 1016.5 0.0
07/01:00pm 27.7 29.0 17.5 53 6.4 SSE 7 13 4 7 1016.6 1016.6 0.0
07/12:30pm 27.0 28.6 17.8 57 5.8 WNW 6 9 3 5 1016.8 1016.8 0.0
07/12:00pm 25.8 27.2 17.4 59 5.2 WSW 6 9 3 5 1016.9 1016.9 0.0
07/11:30am 24.9 26.6 18.6 68 4.0 NW 7 13 4 7 1017.0 1017.0 0.0
07/11:00am 23.5 25.4 17.7 70 3.6 NNW 4 9 2 5 1017.0 1017.0 0.0
07/10:30am 22.5 24.3 18.3 77 2.6 WSW 6 9 3 5 1017.2 1017.2 0.0
07/10:00am 20.1 21.5 18.6 91 0.9 W 9 11 5 6 1017.2 1017.2 0.0
07/09:30am 18.4 20.1 18.1 98 0.2 SW 6 7 3 4 1017.1 1017.1 0.0
07/09:26am 18.0 19.5 17.7 98 0.2 WSW 6 9 3 5 1017.0 1017.0 0.0
07/09:12am 17.0 18.1 16.7 98 0.2 W 6 7 3 4 1017.1 1017.1 0.0
07/09:00am 16.6 17.4 16.3 98 0.2 WNW 7 9 4 5 1017.1 1017.1 0.0
07/08:30am 15.5 15.9 15.2 98 0.2 WNW 7 9 4 5 1016.9 1016.9 0.0
07/08:00am 14.3 13.9 14.0 98 0.2 WNW 9 11 5 6 1016.7 1016.7 0.0
07/07:30am 13.3 12.5 13.0 98 0.2 WNW 9 13 5 7 1016.6 1016.6 0.0
07/07:00am 12.4 11.3 12.1 98 0.2 NW 9 11 5 6 1016.3 1016.3 0.0
07/06:30am 11.7 10.8 11.4 98 0.2 NNW 7 9 4 5 1016.1 1016.1 0.0
07/06:00am 12.3 11.6 12.0 98 0.2 NW 7 7 4 4 1015.9 1015.9 0.0
07/05:30am 12.5 12.0 12.2 98 0.2 NW 6 7 3 4 1015.8 1015.8 0.0
07/05:00am 12.7 12.1 12.4 98 0.2 WNW 7 7 4 4 1015.6 1015.6 0.0
07/04:30am 12.7 11.7 12.4 98 0.2 WNW 9 11 5 6 1015.7 1015.7 0.0
07/04:00am 12.4 11.7 11.9 97 0.3 NW 7 11 4 6 1015.4 1015.4 0.0
07/03:30am 12.9 12.3 12.4 97 0.3 NW 7 9 4 5 1015.7 1015.7 0.0
07/03:15am 12.6 11.5 12.0 96 0.3 WNW 9 11 5 6 1015.6 1015.6 0.0
07/03:00am 13.7 13.6 13.2 97 0.3 WNW 6 7 3 4 1015.6 1015.6 0.0
07/02:57am 13.6 13.4 13.1 97 0.3 WNW 6 7 3 4 1015.7 1015.7 0.0
07/02:30am 13.0 12.4 12.4 96 0.3 NW 7 9 4 5 1015.9 1015.9 0.0
07/02:23am 13.4 12.9 12.8 96 0.3 NW 7 9 4 5 1016.0 1016.0 0.0
07/02:16am 13.7 13.3 13.1 96 0.3 NNW 7 9 4 5 1016.0 1016.0 0.0
07/02:02am 14.1 14.1 13.5 96 0.3 NNW 6 7 3 4 1016.2 1016.2 0.0
07/02:00am 14.0 13.9 13.4 96 0.3 NNW 6 7 3 4 1016.2 1016.2 0.0
07/01:33am 14.9 15.1 14.1 95 0.5 S 6 6 3 3 1016.5 1016.5 0.0
07/01:30am 14.9 15.1 14.1 95 0.5 S 6 6 3 3 1016.5 1016.5 0.0
07/01:00am 15.2 15.3 14.4 95 0.5 SSE 7 7 4 4 1016.7 1016.7 0.0
07/12:30am 15.5 15.6 14.5 94 0.6 S 7 7 4 4 1016.8 1016.8 0.0
07/12:00am 16.2 16.6 15.4 95 0.5 S 7 9 4 5 1017.0 1017.0 0.0
 
Date/Time
EDT
Temp
°C
App
Temp
°C
Dew
Point
Rel
Hum
%
Delta-T
°C
Wind Press
QNH
hPa
Press
MSL
hPa
Rain
since 9 am
mm
Dir
 
Spd
km/h
Gust
km/h
Spd
kts
Gust
kts
06/11:30pm 16.2 16.6 15.2 94 0.6 SSE 7 9 4 5 1017.3 1017.3 0.0
06/11:00pm 16.4 16.9 14.9 91 0.9 SSE 6 7 3 4 1017.5 1017.5 0.0
06/10:30pm 17.4 18.0 15.9 91 0.9 ESE 7 11 4 6 1017.6 1017.6 0.0
06/10:00pm 17.4 17.9 15.6 89 1.1 ESE 7 9 4 5 1017.7 1017.7 0.0
06/09:30pm 18.1 17.2 15.9 87 1.3 ESE 15 22 8 12 1017.4 1017.4 0.0
06/09:00pm 18.6 18.1 15.8 84 1.7 ESE 13 17 7 9 1017.3 1017.3 0.0
06/08:30pm 19.7 18.5 16.0 79 2.2 E 17 20 9 11 1017.0 1017.0 0.0
06/08:00pm 21.0 19.2 16.0 73 3.0 E 20 26 11 14 1016.8 1016.8 0.0
06/07:30pm 21.8 18.8 15.9 69 3.5 E 26 32 14 17 1016.6 1016.6 0.0
06/07:00pm 22.5 19.4 15.6 65 4.1 E 26 33 14 18 1016.4 1016.4 0.0
06/06:30pm 23.0 19.5 15.6 63 4.4 E 28 33 15 18 1016.3 1016.3 0.0
06/06:00pm 23.4 20.0 15.7 62 4.6 E 28 33 15 18 1016.3 1016.3 0.0
06/05:30pm 24.0 20.3 16.0 61 4.9 E 30 37 16 20 1016.2 1016.2 0.0
06/05:00pm 24.2 21.1 15.7 59 5.1 E 26 33 14 18 1016.4 1016.4 0.0
06/04:30pm 24.1 20.8 15.1 57 5.4 E 26 35 14 19 1016.6 1016.6 0.0
06/04:00pm 24.4 21.3 15.6 58 5.3 E 26 32 14 17 1016.8 1016.8 0.0
06/03:30pm 24.3 20.3 15.2 57 5.5 E 30 35 16 19 1017.0 1017.0 0.0
06/03:00pm 24.6 20.9 15.0 55 5.7 E 28 35 15 19 1017.3 1017.3 0.0
06/02:30pm 24.5 21.3 15.4 57 5.5 E 26 33 14 18 1017.5 1017.5 0.0
06/02:00pm 24.5 21.8 15.7 58 5.3 E 24 32 13 17 1017.7 1017.7 0.0
06/01:30pm 24.4 21.5 15.1 56 5.6 E 24 30 13 16 1017.9 1017.9 0.0
06/01:00pm 24.1 21.0 14.5 55 5.7 ESE 24 30 13 16 1018.1 1018.1 0.0
06/12:30pm 24.8 22.0 15.4 56 5.7 E 24 32 13 17 1018.2 1018.2 0.0
06/12:00pm 23.7 19.9 14.7 57 5.3 E 28 35 15 19 1018.6 1018.6 0.0
06/11:30am 23.4 20.2 15.2 60 4.9 E 26 33 14 18 1018.7 1018.7 0.0
06/11:00am 22.9 20.7 15.0 61 4.7 E 20 28 11 15 1018.9 1018.9 0.0
06/10:30am 22.0 19.8 14.9 64 4.2 E 20 26 11 14 1019.1 1019.1 0.0
06/10:00am 21.3 19.6 15.8 71 3.3 E 19 24 10 13 1019.2 1019.2 0.0
06/09:30am 20.6 19.0 14.9 70 3.3 E 17 22 9 12 1019.3 1019.3 0.0
06/09:00am 19.6 19.5 15.0 75 2.7 ENE 9 13 5 7 1019.7 1019.7 0.0
06/08:30am 17.0 16.6 14.1 83 1.7 NE 9 13 5 7 1019.6 1019.6 0.0
06/08:00am 16.6 15.8 14.1 85 1.4 ENE 11 15 6 8 1019.4 1019.4 0.0
06/07:30am 14.9 14.5 14.1 95 0.5 ENE 9 13 5 7 1019.2 1019.2 0.0
06/07:00am 13.3 12.4 12.5 95 0.4 NE 9 11 5 6 1019.0 1019.0 0.0
06/06:30am 13.1 11.4 12.3 95 0.4 ENE 13 13 7 7 1018.8 1018.8 0.0
06/06:00am 13.3 11.9 12.2 93 0.6 ENE 11 13 6 7 1018.6 1018.6 0.0
06/05:30am 13.7 12.8 12.6 93 0.6 ENE 9 11 5 6 1018.6 1018.6 0.0
06/05:00am 14.7 14.4 13.2 91 0.8 ENE 7 7 4 4 1018.7 1018.7 0.0
06/04:30am 15.0 14.4 13.5 91 0.8 NE 9 11 5 6 1018.9 1018.9 0.0
06/04:00am 16.0 14.8 14.0 88 1.1 ENE 13 15 7 8 1019.1 1019.1 0.0
06/03:30am 16.4 15.3 14.4 88 1.1 NE 13 17 7 9 1019.3 1019.3 0.0
06/03:00am 17.1 16.0 14.4 84 1.5 ENE 13 17 7 9 1019.6 1019.6 0.0
06/02:30am 17.9 16.8 14.4 80 2.0 ENE 13 17 7 9 1019.8 1019.8 0.0
06/02:00am 17.8 15.1 14.7 82 1.8 E 22 28 12 15 1020.1 1020.1 0.0
06/01:30am 17.7 14.6 14.6 82 1.8 E 24 30 13 16 1020.5 1020.5 0.0
06/01:00am 18.0 14.6 14.7 81 1.9 E 26 33 14 18 1020.9 1020.9 0.0
06/12:30am 18.0 15.2 14.3 79 2.1 E 22 32 12 17 1021.0 1021.0 0.0
06/12:00am 18.3 14.7 14.2 77 2.3 E 26 33 14 18 1021.1 1021.1 0.0
 
Date/Time
EDT
Temp
°C
App
Temp
°C
Dew
Point
Rel
Hum
%
Delta-T
°C
Wind Press
QNH
hPa
Press
MSL
hPa
Rain
since 9 am
mm
Dir
 
Spd
km/h
Gust
km/h
Spd
kts
Gust
kts
05/11:30pm 18.4 15.2 14.3 77 2.4 E 24 32 13 17 1021.2 1021.2 0.0
05/11:00pm 18.5 14.6 14.4 77 2.4 E 28 39 15 21 1021.4 1021.4 0.0
05/10:30pm 18.8 14.9 14.5 76 2.5 E 28 35 15 19 1021.5 1021.5 0.0
05/10:00pm 18.7 14.8 14.4 76 2.5 E 28 37 15 20 1021.5 1021.5 0.0
05/09:30pm 18.9 14.4 14.8 77 2.4 E 32 43 17 23 1021.3 1021.3 0.0
05/09:00pm 19.1 14.7 14.1 73 2.9 E 30 37 16 20 1021.0 1021.0 0.0
05/08:30pm 19.4 14.5 13.8 70 3.2 E 32 41 17 22 1020.7 1020.7 0.0
05/08:00pm 19.9 14.3 13.4 66 3.7 E 35 43 19 23 1020.4 1020.4 0.0
05/07:30pm 20.4 14.7 12.9 62 4.3 E 35 44 19 24 1020.0 1020.0 0.0
05/07:00pm 21.1 14.7 12.0 56 5.1 E 37 44 20 24 1019.8 1019.8 0.0
05/06:30pm 21.4 15.5 12.3 56 5.1 E 35 44 19 24 1019.8 1019.8 0.0
05/06:00pm 21.8 16.1 12.9 57 5.1 E 35 50 19 27 1019.9 1019.9 0.0
05/05:30pm 21.9 16.0 12.5 55 5.3 E 35 44 19 24 1020.0 1020.0 0.0
05/05:00pm 22.8 17.7 13.0 54 5.6 E 32 41 17 22 1020.3 1020.3 0.0
05/04:30pm 22.4 16.9 12.6 54 5.6 E 33 41 18 22 1020.4 1020.4 0.0
05/04:00pm 22.6 17.4 12.8 54 5.6 E 32 39 17 21 1020.7 1020.7 0.0
05/03:30pm 22.9 17.3 12.2 51 6.1 E 33 43 18 23 1020.9 1020.9 0.0
05/03:00pm 22.9 17.5 12.2 51 6.0 E 32 43 17 23 1021.1 1021.1 0.0
05/02:30pm 23.4 18.4 13.3 53 5.8 E 32 41 17 22 1021.3 1021.3 0.0
05/02:00pm 23.0 18.0 14.0 57 5.2 E 33 46 18 25 1021.5 1021.5 0.0
05/01:30pm 22.6 17.7 13.7 57 5.2 E 32 44 17 24 1021.7 1021.7 0.0
05/01:00pm 22.4 17.7 13.2 56 5.3 ENE 30 43 16 23 1022.0 1022.0 0.0
05/12:30pm 22.7 18.4 13.2 55 5.5 E 28 33 15 18 1022.2 1022.2 0.0
05/12:00pm 21.7 18.4 13.9 61 4.5 E 24 35 13 19 1022.6 1022.6 0.0
05/11:30am 22.0 19.6 14.4 62 4.5 E 20 28 11 15 1022.8 1022.8 0.0
05/11:00am 20.7 17.4 12.9 61 4.4 E 22 28 12 15 1022.9 1022.9 0.0
05/10:30am 20.3 17.4 13.0 63 4.1 E 20 26 11 14 1022.9 1022.9 0.0
05/10:00am 20.6 18.3 13.1 62 4.3 ENE 17 26 9 14 1022.9 1022.9 0.0
05/09:30am 20.4 18.5 13.1 63 4.2 NE 15 19 8 10 1022.8 1022.8 0.0
05/09:00am 19.9 19.2 14.3 70 3.2 NE 11 17 6 9 1022.5 1022.5 0.0
05/08:30am 18.2 17.9 14.5 79 2.1 NE 9 11 5 6 1022.4 1022.4 0.0
05/08:00am 17.5 17.1 14.0 80 2.0 NE 9 11 5 6 1022.2 1022.2 0.0
05/07:30am 17.0 17.3 14.5 85 1.4 NE 6 7 3 4 1022.0 1022.0 0.0
05/07:00am 16.6 16.6 14.1 85 1.4 NNE 7 7 4 4 1021.6 1021.6 0.0
05/06:30am 16.4 16.0 14.1 86 1.3 NE 9 11 5 6 1021.2 1021.2 0.0
05/06:00am 16.6 15.5 14.2 86 1.4 NE 13 15 7 8 1021.0 1021.0 0.0
05/05:30am 16.7 16.0 14.3 86 1.4 ENE 11 13 6 7 1020.6 1020.6 0.0
05/05:00am 16.1 16.1 14.1 88 1.1 E 7 9 4 5 1020.5 1020.5 0.0
05/04:30am 15.7 15.7 13.7 88 1.1 ESE 6 7 3 4 1020.3 1020.3 0.0
05/04:00am 15.3 16.1 13.7 90 0.9 ENE 2 6 1 3 1020.2 1020.2 0.0
05/03:30am 14.8 14.8 13.7 93 0.6 ESE 6 7 3 4 1020.2 1020.2 0.0
05/03:00am 13.9 13.7 13.0 94 0.5 ENE 6 6 3 3 1020.3 1020.3 0.0
05/02:30am 13.0 12.3 11.4 90 0.8 ENE 6 7 3 4 1020.3 1020.3 0.0
05/02:00am 14.7 14.3 13.1 90 0.9 NE 7 9 4 5 1020.5 1020.5 0.0
05/01:30am 14.0 13.1 12.7 92 0.7 NE 9 11 5 6 1020.7 1020.7 0.0
05/01:00am 14.4 13.2 12.8 90 0.9 ENE 11 11 6 6 1020.7 1020.7 0.0
05/12:30am 15.2 14.1 13.1 87 1.2 NE 11 13 6 7 1020.7 1020.7 0.0
05/12:00am 16.2 15.3 13.7 85 1.4 NE 11 13 6 7 1020.8 1020.8 0.0
 
Date/Time
EDT
Temp
°C
App
Temp
°C
Dew
Point
Rel
Hum
%
Delta-T
°C
Wind Press
QNH
hPa
Press
MSL
hPa
Rain
since 9 am
mm
Dir
 
Spd
km/h
Gust
km/h
Spd
kts
Gust
kts
04/11:30pm 17.2 15.7 14.1 82 1.8 ENE 15 17 8 9 1020.7 1020.7 0.0
04/11:00pm 17.0 14.7 14.1 83 1.6 ENE 19 22 10 12 1020.6 1020.6 0.0
04/10:30pm 18.2 16.3 14.1 77 2.3 ENE 17 19 9 10 1020.8 1020.8 0.0
04/10:00pm 18.2 17.0 14.1 77 2.3 ENE 13 17 7 9 1020.8 1020.8 0.0
04/09:30pm 18.2 15.3 14.1 77 2.3 E 22 30 12 16 1020.5 1020.5 0.0
04/09:00pm 18.4 15.8 13.7 74 2.7 E 20 22 11 12 1020.2 1020.2 0.0
04/08:30pm 18.8 15.9 14.1 74 2.7 E 22 26 12 14 1020.0 1020.0 0.0
04/08:00pm 19.4 16.2 14.2 72 3.0 E 24 30 13 16 1019.6 1019.6 0.0
04/07:30pm 20.5 17.4 14.4 68 3.6 E 24 32 13 17 1019.0 1019.0 0.0
04/07:00pm 21.3 17.5 14.7 66 3.9 E 28 33 15 18 1018.7 1018.7 0.0
04/06:30pm 22.1 18.3 14.7 63 4.4 E 28 32 15 17 1018.2 1018.2 0.0
04/06:00pm 22.7 19.5 15.3 63 4.4 E 26 30 14 16 1018.2 1018.2 0.0
04/05:30pm 22.5 19.4 14.6 61 4.7 E 24 32 13 17 1018.2 1018.2 0.0
04/05:00pm 23.3 20.7 15.9 63 4.5 E 24 32 13 17 1018.2 1018.2 0.0

Other Formats:

Comma delimited format used in spreadsheet applications
http://www.bom.gov.au/fwo/IDV60801/IDV60801.94907.axf

JavaScript Object Notation format (JSON) in row-major order
http://www.bom.gov.au/fwo/IDV60801/IDV60801.94907.json